createdAt,value
2018-03-25T00:01:23.631Z,96746.91
2018-03-25T00:03:51.270Z,96747.13
2018-03-25T00:06:18.866Z,96751.16
2018-03-25T00:08:46.500Z,96753.43
2018-03-25T00:11:14.123Z,96752.77
2018-03-25T00:13:41.723Z,96755.06
2018-03-25T00:16:09.345Z,96755.25
2018-03-25T00:18:36.935Z,96759.19
2018-03-25T00:21:04.798Z,96756.00
2018-03-25T00:23:32.471Z,96766.28
2018-03-25T00:26:00.074Z,96767.52
2018-03-25T00:28:27.704Z,96763.47
2018-03-25T00:30:55.310Z,96764.45
2018-03-25T00:33:22.928Z,96773.69
2018-03-25T00:35:50.532Z,96773.90
2018-03-25T00:38:18.554Z,96772.66
2018-03-25T00:40:46.228Z,96771.13
2018-03-25T00:43:13.826Z,96771.58
2018-03-25T00:45:41.524Z,96771.78
2018-03-25T00:48:09.204Z,96766.56
2018-03-25T00:50:36.913Z,96765.70
2018-03-25T00:53:04.525Z,96759.52
2018-03-25T00:55:32.116Z,96762.37
2018-03-25T00:57:59.824Z,96761.42
2018-03-25T01:00:27.509Z,96763.30
2018-03-25T01:02:55.325Z,96755.65
2018-03-25T01:05:22.916Z,96759.46
2018-03-25T01:07:50.596Z,96763.44
2018-03-25T01:10:18.300Z,96762.40
2018-03-25T01:12:45.988Z,96760.96
2018-03-25T01:15:13.731Z,96766.92
2018-03-25T01:17:41.407Z,96770.37
2018-03-25T01:20:09.097Z,96771.31
2018-03-25T01:22:36.797Z,96773.34
2018-03-25T01:25:04.488Z,96774.71
2018-03-25T01:27:32.188Z,96775.75
2018-03-25T01:29:59.860Z,96775.84
2018-03-25T01:32:27.562Z,96775.19
2018-03-25T01:34:55.264Z,96778.07
2018-03-25T01:37:23.013Z,96778.73
2018-03-25T01:39:50.696Z,96777.43
2018-03-25T01:42:18.388Z,96779.41
2018-03-25T01:44:46.095Z,96781.82
2018-03-25T01:47:13.808Z,96786.25
2018-03-25T01:49:41.488Z,96775.59
2018-03-25T01:52:09.171Z,96779.55
2018-03-25T01:54:36.864Z,96792.63
2018-03-25T01:57:04.537Z,96777.50
2018-03-25T01:59:32.249Z,96778.69
2018-03-25T02:01:59.931Z,96776.88
2018-03-25T02:04:27.623Z,96781.83
2018-03-25T02:06:55.317Z,96780.12
2018-03-25T02:09:23.003Z,96782.47
2018-03-25T02:11:50.773Z,96781.36
2018-03-25T02:14:18.447Z,96784.52
2018-03-25T02:16:46.147Z,96784.98
2018-03-25T02:19:13.820Z,96783.11
2018-03-25T02:21:41.534Z,96785.95
2018-03-25T02:24:09.234Z,96786.20
2018-03-25T02:26:36.916Z,96783.14
2018-03-25T02:29:04.609Z,96783.86
2018-03-25T02:31:32.281Z,96779.47
2018-03-25T02:34:00.028Z,96781.62
2018-03-25T02:36:27.712Z,96783.03
2018-03-25T02:38:55.413Z,96786.46
2018-03-25T02:41:23.090Z,96788.33
2018-03-25T02:43:51.079Z,96788.84
2018-03-25T02:46:18.761Z,96787.11
2018-03-25T02:48:46.458Z,96790.77
2018-03-25T02:51:14.162Z,96790.87
2018-03-25T02:53:41.844Z,96799.59
2018-03-25T02:56:09.544Z,96796.30
2018-03-25T02:58:37.225Z,96795.97
2018-03-25T03:01:04.966Z,96798.94
2018-03-25T03:03:32.644Z,96798.15
2018-03-25T03:06:00.373Z,96799.11
2018-03-25T03:08:28.063Z,96802.26
2018-03-25T03:10:55.775Z,96800.70
2018-03-25T03:13:23.488Z,96799.45
2018-03-25T03:15:51.235Z,96801.55
2018-03-25T03:18:18.958Z,96809.19
2018-03-25T03:20:46.649Z,96810.35
2018-03-25T03:23:14.332Z,96814.46
2018-03-25T03:25:42.004Z,96815.80
2018-03-25T03:28:09.704Z,96810.89
2018-03-25T03:30:37.382Z,96810.36
2018-03-25T03:33:05.080Z,96819.23
2018-03-25T03:35:32.764Z,96819.81
2018-03-25T03:38:00.480Z,96818.86
2018-03-25T03:40:28.157Z,96821.28
2018-03-25T03:42:55.861Z,96823.68
2018-03-25T03:45:23.535Z,96821.81
2018-03-25T03:47:51.263Z,96817.70
2018-03-25T03:50:18.951Z,96817.90
2018-03-25T03:52:46.685Z,96816.47
2018-03-25T03:55:14.356Z,96822.19
2018-03-25T03:57:42.027Z,96821.14
2018-03-25T04:00:09.742Z,96823.30
2018-03-25T04:02:37.434Z,96819.83
2018-03-25T04:05:05.146Z,96818.98
2018-03-25T04:07:32.827Z,96823.64
2018-03-25T04:10:00.520Z,96830.53
2018-03-25T04:12:28.266Z,96828.69
2018-03-25T04:14:56.209Z,96830.32
2018-03-25T04:17:23.960Z,96827.23
2018-03-25T04:19:51.628Z,96830.13
2018-03-25T04:22:19.312Z,96825.55
2018-03-25T04:24:46.991Z,96826.41
2018-03-25T04:27:14.690Z,96831.48
2018-03-25T04:29:42.363Z,96829.87
2018-03-25T04:32:10.063Z,96832.92
2018-03-25T04:34:37.739Z,96828.09
2018-03-25T04:37:05.439Z,96832.63
2018-03-25T04:39:33.145Z,96840.11
2018-03-25T04:42:00.885Z,96832.50
2018-03-25T04:44:28.575Z,96831.19
2018-03-25T04:46:56.257Z,96833.20
2018-03-25T04:49:23.954Z,96837.89
2018-03-25T04:51:51.633Z,96836.03
2018-03-25T04:54:19.732Z,96837.73
2018-03-25T04:56:47.418Z,96834.41
2018-03-25T04:59:15.094Z,96834.06
2018-03-25T05:01:42.783Z,96836.68
2018-03-25T05:04:10.446Z,96837.49
2018-03-25T05:06:38.159Z,96832.87
2018-03-25T05:09:05.829Z,96836.31
2018-03-25T05:11:33.779Z,96837.03
2018-03-25T05:14:01.464Z,96840.88
2018-03-25T05:16:29.193Z,96837.69
2018-03-25T05:18:56.873Z,96840.19
2018-03-25T05:21:24.566Z,96836.59
2018-03-25T05:23:52.256Z,96835.58
2018-03-25T05:26:19.926Z,96840.64
2018-03-25T05:28:47.612Z,96843.67
2018-03-25T05:31:15.281Z,96844.63
2018-03-25T05:33:42.984Z,96847.55
2018-03-25T05:36:10.684Z,96845.66
2018-03-25T05:38:38.390Z,96847.77
2018-03-25T05:41:06.064Z,96847.72
2018-03-25T05:43:33.776Z,96854.63
2018-03-25T05:46:01.458Z,96852.91
2018-03-25T05:48:29.164Z,96861.83
2018-03-25T05:50:56.840Z,96856.59
2018-03-25T05:53:24.535Z,96865.70
2018-03-25T05:55:52.216Z,96865.38
2018-03-25T05:58:19.947Z,96868.02
2018-03-25T06:00:47.624Z,96871.36
2018-03-25T06:03:15.324Z,96874.92
2018-03-25T06:05:42.996Z,96878.06
2018-03-25T06:08:10.706Z,96879.21
2018-03-25T06:10:38.380Z,96882.60
2018-03-25T06:13:06.091Z,96881.71
2018-03-25T06:15:33.767Z,96879.09
2018-03-25T06:18:01.457Z,96885.75
2018-03-25T06:20:29.142Z,96883.84
2018-03-25T06:22:56.860Z,96888.41
2018-03-25T06:25:25.152Z,96890.87
2018-03-25T06:27:52.841Z,96889.03
2018-03-25T06:30:20.541Z,96890.48
2018-03-25T06:32:48.208Z,96893.70
2018-03-25T06:35:15.907Z,96897.50
2018-03-25T06:37:43.582Z,96896.40
2018-03-25T06:40:12.954Z,96896.73
2018-03-25T06:42:40.632Z,96902.78
2018-03-25T06:45:08.317Z,96907.23
2018-03-25T06:47:36.020Z,96909.33
2018-03-25T06:50:03.703Z,96911.08
2018-03-25T06:52:31.407Z,96918.62
2018-03-25T06:54:59.084Z,96913.59
2018-03-25T06:57:26.816Z,96920.27
2018-03-25T06:59:54.484Z,96917.50
2018-03-25T07:02:22.157Z,96921.25
2018-03-25T07:04:49.847Z,96923.67
2018-03-25T07:07:17.518Z,96927.06
2018-03-25T07:09:45.225Z,96925.22
2018-03-25T07:12:12.891Z,96929.97
2018-03-25T07:14:40.485Z,96928.45
2018-03-25T07:17:08.097Z,96930.77
2018-03-25T07:19:35.700Z,96934.77
2018-03-25T07:22:03.464Z,96940.23
2018-03-25T07:24:31.059Z,96951.06
2018-03-25T07:26:59.400Z,96952.42
2018-03-25T07:29:27.113Z,96952.91
2018-03-25T07:31:54.647Z,96957.77
2018-03-25T07:34:22.273Z,96950.59
2018-03-25T07:36:49.887Z,96957.52
2018-03-25T07:39:17.796Z,96961.19
2018-03-25T07:41:45.482Z,96962.02
2018-03-25T07:44:13.076Z,96954.05
2018-03-25T07:46:40.701Z,96956.77
2018-03-25T07:49:08.295Z,96958.47
2018-03-25T07:51:35.924Z,96955.28
2018-03-25T07:54:03.517Z,96962.35
2018-03-25T07:56:31.249Z,96961.63
2018-03-25T07:58:58.855Z,96966.36
2018-03-25T08:01:26.444Z,96964.90
2018-03-25T08:03:54.130Z,96968.14
2018-03-25T08:06:21.691Z,96969.93
2018-03-25T08:08:49.311Z,96967.47
2018-03-25T08:11:16.901Z,96972.63
2018-03-25T08:13:44.877Z,96973.29
2018-03-25T08:16:12.481Z,96967.79
2018-03-25T08:18:40.110Z,96973.48
2018-03-25T08:21:07.741Z,96976.41
2018-03-25T08:23:35.336Z,96976.66
2018-03-25T08:26:02.995Z,96978.06
2018-03-25T08:28:30.589Z,96978.01
2018-03-25T08:30:58.520Z,96978.09
2018-03-25T08:33:26.108Z,96976.42
2018-03-25T08:35:53.709Z,96976.86
2018-03-25T08:38:21.335Z,96976.21
2018-03-25T08:40:48.932Z,96975.08
2018-03-25T08:43:16.561Z,96973.13
2018-03-25T08:45:44.164Z,96971.56
2018-03-25T08:48:11.790Z,96979.77
2018-03-25T08:50:39.390Z,96978.88
2018-03-25T08:53:07.393Z,96982.11
2018-03-25T08:55:35.004Z,96979.72
2018-03-25T08:58:02.613Z,96980.32
2018-03-25T09:00:30.232Z,96980.65
2018-03-25T09:02:57.843Z,96976.90
2018-03-25T09:05:25.453Z,96975.14
2018-03-25T09:07:53.045Z,96973.72
2018-03-25T09:10:20.852Z,96966.09
2018-03-25T09:12:48.435Z,96972.93
2018-03-25T09:15:16.028Z,96970.67
2018-03-25T09:17:43.652Z,96967.59
2018-03-25T09:20:11.252Z,96966.14
2018-03-25T09:22:38.863Z,96961.28
2018-03-25T09:25:06.458Z,96968.30
2018-03-25T09:27:34.414Z,96960.58
2018-03-25T09:30:02.021Z,96970.64
2018-03-25T09:32:29.624Z,96975.23
2018-03-25T09:34:57.243Z,96968.95
2018-03-25T09:37:24.845Z,96973.52
2018-03-25T09:39:52.462Z,96970.77
2018-03-25T09:42:20.048Z,96971.22
2018-03-25T09:44:47.701Z,96970.35
2018-03-25T09:47:15.296Z,96978.61
2018-03-25T09:49:42.884Z,96972.42
2018-03-25T09:52:10.515Z,96969.42
2018-03-25T09:54:38.117Z,96960.77
2018-03-25T09:57:05.741Z,96965.58
2018-03-25T09:59:33.344Z,96972.47
2018-03-25T10:02:04.812Z,96966.77
2018-03-25T10:04:32.408Z,96960.52
2018-03-25T10:07:00.216Z,96962.34
2018-03-25T10:09:27.820Z,96963.82
2018-03-25T10:11:55.412Z,96967.84
2018-03-25T10:14:23.036Z,96961.36
2018-03-25T10:16:50.646Z,96960.02
2018-03-25T10:19:18.264Z,96960.95
2018-03-25T10:21:45.862Z,96957.52
2018-03-25T10:24:13.528Z,96963.59
2018-03-25T10:26:41.147Z,96960.56
2018-03-25T10:29:08.739Z,96964.14
2018-03-25T10:31:36.377Z,96959.96
2018-03-25T10:34:03.985Z,96966.08
2018-03-25T10:36:31.844Z,96951.16
2018-03-25T10:38:59.450Z,96953.05
2018-03-25T10:41:27.399Z,96953.73
2018-03-25T10:43:55.008Z,96956.22
2018-03-25T10:46:22.608Z,96962.42
2018-03-25T10:48:50.237Z,96952.42
2018-03-25T10:51:17.840Z,96956.92
2018-03-25T10:53:45.550Z,96963.56
2018-03-25T10:56:13.165Z,96962.05
2018-03-25T10:58:40.966Z,96963.66
2018-03-25T11:01:08.594Z,96958.97
2018-03-25T11:03:36.199Z,96959.77
2018-03-25T11:06:03.824Z,96975.19
2018-03-25T11:08:31.514Z,96963.87
2018-03-25T11:10:59.135Z,96965.13
2018-03-25T11:13:26.745Z,96964.54
2018-03-25T11:15:54.864Z,96969.34
2018-03-25T11:18:22.472Z,96964.86
2018-03-25T11:20:50.067Z,96965.25
2018-03-25T11:23:17.685Z,96957.30
2018-03-25T11:25:45.284Z,96960.32
2018-03-25T11:28:12.914Z,96963.41
2018-03-25T11:30:40.520Z,96957.83
2018-03-25T11:33:08.415Z,96954.94
2018-03-25T11:35:36.027Z,96948.16
2018-03-25T11:38:03.627Z,96952.47
2018-03-25T11:40:31.289Z,96952.44
2018-03-25T11:42:58.903Z,96949.03
2018-03-25T11:45:26.526Z,96945.09
2018-03-25T11:47:54.173Z,96955.13
2018-03-25T11:50:22.049Z,96948.17
2018-03-25T11:52:49.701Z,96950.60
2018-03-25T11:55:17.473Z,96955.61
2018-03-25T11:57:45.080Z,96949.00
2018-03-25T12:00:12.690Z,96954.38
2018-03-25T12:02:40.317Z,96954.84
2018-03-25T12:05:07.912Z,96952.22
2018-03-25T12:07:35.534Z,96956.74
2018-03-25T12:10:03.183Z,96951.09
2018-03-25T12:12:30.824Z,96949.09
2018-03-25T12:14:58.433Z,96945.41
2018-03-25T12:17:26.048Z,96944.87
2018-03-25T12:19:53.690Z,96944.72
2018-03-25T12:22:21.292Z,96944.56
2018-03-25T12:24:48.916Z,96940.48
2018-03-25T12:27:16.517Z,96935.27
2018-03-25T12:29:44.227Z,96940.84
2018-03-25T12:32:11.852Z,96934.23
2018-03-25T12:34:39.491Z,96942.48
2018-03-25T12:37:07.118Z,96943.17
2018-03-25T12:39:35.493Z,96940.20
2018-03-25T12:42:03.121Z,96935.05
2018-03-25T12:44:30.726Z,96932.39
2018-03-25T12:46:58.471Z,96932.27
2018-03-25T12:49:26.097Z,96920.75
2018-03-25T12:51:53.705Z,96930.59
2018-03-25T12:54:21.350Z,96923.70
2018-03-25T12:56:48.948Z,96926.05
2018-03-25T12:59:16.689Z,96932.44
2018-03-25T13:01:44.336Z,96921.59
2018-03-25T13:04:12.009Z,96914.56
2018-03-25T13:06:39.636Z,96922.78
2018-03-25T13:09:07.337Z,96920.49
2018-03-25T13:11:34.968Z,96921.30
2018-03-25T13:14:02.574Z,96923.85
2018-03-25T13:16:30.210Z,96925.51
2018-03-25T13:18:57.853Z,96920.45
2018-03-25T13:21:25.460Z,96916.91
2018-03-25T13:23:53.107Z,96916.56
2018-03-25T13:26:20.714Z,96919.70
2018-03-25T13:28:48.530Z,96924.85
2018-03-25T13:31:16.135Z,96918.66
2018-03-25T13:33:43.745Z,96922.45
2018-03-25T13:36:11.369Z,96919.55
2018-03-25T13:38:38.972Z,96917.20
2018-03-25T13:41:06.645Z,96912.60
2018-03-25T13:43:34.208Z,96912.83
2018-03-25T13:46:02.163Z,96919.52
2018-03-25T13:48:29.784Z,96920.48
2018-03-25T13:50:57.388Z,96921.45
2018-03-25T13:53:25.000Z,96918.66
2018-03-25T13:55:52.619Z,96913.78
2018-03-25T13:58:20.241Z,96915.47
2018-03-25T14:00:47.838Z,96908.56
2018-03-25T14:03:15.701Z,96913.55
2018-03-25T14:05:43.295Z,96905.58
2018-03-25T14:08:10.890Z,96914.52
2018-03-25T14:10:38.521Z,96910.61
2018-03-25T14:13:06.126Z,96909.72
2018-03-25T14:15:33.755Z,96917.55
2018-03-25T14:18:01.347Z,96920.46
2018-03-25T14:20:29.128Z,96928.23
2018-03-25T14:22:56.728Z,96920.20
2018-03-25T14:25:24.358Z,96917.39
2018-03-25T14:27:51.984Z,96913.56
2018-03-25T14:30:19.597Z,96918.54
2018-03-25T14:32:47.208Z,96918.99
2018-03-25T14:35:14.809Z,96912.39
2018-03-25T14:37:42.663Z,96911.83
2018-03-25T14:40:10.261Z,96914.75
2018-03-25T14:42:37.864Z,96925.36
2018-03-25T14:45:05.488Z,96923.76
2018-03-25T14:47:33.093Z,96917.13
2018-03-25T14:50:00.711Z,96915.38
2018-03-25T14:52:28.323Z,96923.88
2018-03-25T14:54:55.941Z,96922.75
2018-03-25T14:57:23.557Z,96930.69
2018-03-25T14:59:51.337Z,96929.95
2018-03-25T15:02:18.936Z,96923.08
2018-03-25T15:04:46.641Z,96930.73
2018-03-25T15:07:14.283Z,96932.50
2018-03-25T15:09:41.892Z,96931.69
2018-03-25T15:12:09.515Z,96932.83
2018-03-25T15:14:37.116Z,96925.63
2018-03-25T15:17:04.800Z,96928.81
2018-03-25T15:19:32.373Z,96931.15
2018-03-25T15:21:59.991Z,96923.52
2018-03-25T15:24:27.604Z,96934.19
2018-03-25T15:26:55.249Z,96934.41
2018-03-25T15:29:22.856Z,96936.50
2018-03-25T15:31:50.483Z,96931.47
2018-03-25T15:34:18.079Z,96941.34
2018-03-25T15:36:45.716Z,96938.18
2018-03-25T15:39:13.335Z,96937.07
2018-03-25T15:41:40.981Z,96943.53
2018-03-25T15:44:08.582Z,96931.47
2018-03-25T15:46:36.373Z,96938.08
2018-03-25T15:49:04.022Z,96930.05
2018-03-25T15:51:31.627Z,96938.54
2018-03-25T15:53:59.244Z,96938.37
2018-03-25T15:56:26.836Z,96941.23
2018-03-25T15:58:54.461Z,96936.84
2018-03-25T16:01:22.057Z,96936.91
2018-03-25T16:03:49.678Z,96935.44
2018-03-25T16:06:17.273Z,96935.88
2018-03-25T16:08:44.909Z,96942.63
2018-03-25T16:11:12.508Z,96930.92
2018-03-25T16:13:40.151Z,96939.05
2018-03-25T16:16:07.966Z,96942.73
2018-03-25T16:18:35.592Z,96941.30
2018-03-25T16:21:03.260Z,96939.33
2018-03-25T16:23:30.886Z,96946.63
2018-03-25T16:25:58.491Z,96946.23
2018-03-25T16:28:26.118Z,96952.77
2018-03-25T16:30:53.726Z,96955.42
2018-03-25T16:33:21.553Z,96953.64
2018-03-25T16:35:49.158Z,96953.23
2018-03-25T16:38:16.769Z,96958.81
2018-03-25T16:40:44.410Z,96952.31
2018-03-25T16:43:12.007Z,96953.02
2018-03-25T16:45:39.628Z,96961.53
2018-03-25T16:48:07.341Z,96968.59
2018-03-25T16:50:35.316Z,96959.70
2018-03-25T16:53:02.927Z,96955.86
2018-03-25T16:55:30.548Z,96968.09
2018-03-25T16:57:58.175Z,96968.61
2018-03-25T17:00:25.763Z,96968.49
2018-03-25T17:02:53.383Z,96969.59
2018-03-25T17:05:20.993Z,96969.27
2018-03-25T17:07:49.159Z,96976.25
2018-03-25T17:10:16.770Z,96975.27
2018-03-25T17:12:44.373Z,96979.56
2018-03-25T17:15:12.017Z,96976.42
2018-03-25T17:17:39.636Z,96992.46
2018-03-25T17:20:07.291Z,96992.10
2018-03-25T17:22:34.981Z,96989.70
2018-03-25T17:25:02.889Z,96992.09
2018-03-25T17:27:30.490Z,96993.98
2018-03-25T17:29:58.104Z,96995.31
2018-03-25T17:32:25.719Z,97000.09
2018-03-25T17:34:53.320Z,97001.69
2018-03-25T17:37:20.931Z,97007.63
2018-03-25T17:39:48.526Z,97006.41
2018-03-25T17:42:16.312Z,97007.20
2018-03-25T17:44:43.911Z,97016.81
2018-03-25T17:47:11.516Z,97016.98
2018-03-25T17:49:39.142Z,97018.23
2018-03-25T17:52:06.745Z,97023.92
2018-03-25T17:54:34.370Z,97023.23
2018-03-25T17:57:01.974Z,97028.03
2018-03-25T17:59:29.576Z,97023.88
2018-03-25T18:01:57.201Z,97026.12
2018-03-25T18:04:24.819Z,97027.80
2018-03-25T18:06:52.440Z,97023.24
2018-03-25T18:09:20.036Z,97036.28
2018-03-25T18:11:47.632Z,97034.91
2018-03-25T18:14:15.243Z,97032.89
2018-03-25T18:16:42.855Z,97034.41
2018-03-25T18:19:10.490Z,97034.48
2018-03-25T18:21:38.098Z,97034.05
2018-03-25T18:24:05.693Z,97041.28
2018-03-25T18:26:33.321Z,97037.27
2018-03-25T18:29:00.940Z,97046.20
2018-03-25T18:31:28.756Z,97043.17
2018-03-25T18:33:56.366Z,97051.83
2018-03-25T18:36:23.964Z,97047.48
2018-03-25T18:38:51.599Z,97052.41
2018-03-25T18:41:19.208Z,97056.86
2018-03-25T18:43:46.847Z,97060.89
2018-03-25T18:46:14.446Z,97069.05
2018-03-25T18:48:42.286Z,97069.00
2018-03-25T18:51:09.885Z,97071.94
2018-03-25T18:53:37.493Z,97068.28
2018-03-25T18:56:05.156Z,97076.44
2018-03-25T18:58:32.768Z,97084.94
2018-03-25T19:01:00.392Z,97086.75
2018-03-25T19:03:27.996Z,97088.34
2018-03-25T19:05:55.631Z,97089.52
2018-03-25T19:08:23.258Z,97090.63
2018-03-25T19:10:50.864Z,97096.70
2018-03-25T19:13:18.498Z,97096.46
2018-03-25T19:15:46.100Z,97099.63
2018-03-25T19:18:13.784Z,97091.33
2018-03-25T19:20:41.398Z,97096.81
2018-03-25T19:23:08.995Z,97096.48
2018-03-25T19:25:36.612Z,97092.45
2018-03-25T19:28:04.220Z,97096.56
2018-03-25T19:30:31.844Z,97091.82
2018-03-25T19:33:00.242Z,97088.02
2018-03-25T19:35:27.892Z,97089.52
2018-03-25T19:37:55.485Z,97092.81
2018-03-25T19:40:23.084Z,97088.98
2018-03-25T19:42:50.708Z,97089.37
2018-03-25T19:45:18.294Z,97092.15
2018-03-25T19:47:45.914Z,97089.81
2018-03-25T19:50:13.532Z,97091.08
2018-03-25T19:52:41.184Z,97094.20
2018-03-25T19:55:08.791Z,97094.44
2018-03-25T19:57:36.417Z,97093.56
2018-03-25T20:00:04.044Z,97092.77
2018-03-25T20:02:31.650Z,97096.95
2018-03-25T20:04:59.361Z,97097.98
2018-03-25T20:07:26.961Z,97099.89
2018-03-25T20:09:54.972Z,97101.58
2018-03-25T20:12:22.598Z,97103.78
2018-03-25T20:14:50.206Z,97112.53
2018-03-25T20:17:17.976Z,97110.03
2018-03-25T20:19:45.560Z,97113.58
2018-03-25T20:22:13.216Z,97113.59
2018-03-25T20:24:40.813Z,97105.97
2018-03-25T20:27:08.781Z,97108.94
2018-03-25T20:29:36.363Z,97113.70
2018-03-25T20:32:03.963Z,97114.20
2018-03-25T20:34:31.588Z,97114.15
2018-03-25T20:36:59.194Z,97124.73
2018-03-25T20:39:26.813Z,97122.70
2018-03-25T20:41:54.404Z,97127.83
2018-03-25T20:44:22.038Z,97129.87
2018-03-25T20:46:49.634Z,97126.85
2018-03-25T20:49:17.224Z,97129.78
2018-03-25T20:51:44.835Z,97135.48
2018-03-25T20:54:12.425Z,97140.42
2018-03-25T20:56:40.052Z,97140.81
2018-03-25T20:59:07.686Z,97139.23
2018-03-25T21:01:35.528Z,97142.16
2018-03-25T21:04:03.141Z,97147.16
2018-03-25T21:06:30.736Z,97147.68
2018-03-25T21:08:58.360Z,97150.91
2018-03-25T21:11:25.962Z,97156.30
2018-03-25T21:13:53.629Z,97158.78
2018-03-25T21:16:21.236Z,97154.25
2018-03-25T21:18:48.847Z,97158.20
2018-03-25T21:21:16.444Z,97152.55
2018-03-25T21:23:44.296Z,97155.33
2018-03-25T21:26:11.883Z,97151.72
2018-03-25T21:28:39.517Z,97157.95
2018-03-25T21:31:07.244Z,97157.21
2018-03-25T21:33:34.845Z,97151.13
2018-03-25T21:36:02.463Z,97155.59
2018-03-25T21:38:30.050Z,97159.02
2018-03-25T21:40:57.695Z,97165.25
2018-03-25T21:43:25.284Z,97173.73
2018-03-25T21:45:52.888Z,97164.87
2018-03-25T21:48:20.505Z,97174.53
2018-03-25T21:50:48.141Z,97174.46
2018-03-25T21:53:15.777Z,97182.65
2018-03-25T21:55:43.382Z,97180.94
2018-03-25T21:58:11.252Z,97184.10
2018-03-25T22:00:38.851Z,97188.55
2018-03-25T22:03:06.435Z,97182.56
2018-03-25T22:05:34.076Z,97185.25
2018-03-25T22:08:01.678Z,97180.77
2018-03-25T22:10:29.296Z,97185.79
2018-03-25T22:12:56.884Z,97181.15
2018-03-25T22:15:24.885Z,97184.07
2018-03-25T22:17:52.506Z,97190.53
2018-03-25T22:20:20.143Z,97182.01
2018-03-25T22:22:47.765Z,97180.37
2018-03-25T22:25:15.358Z,97189.00
2018-03-25T22:27:42.975Z,97182.64
2018-03-25T22:30:10.566Z,97193.45
2018-03-25T22:32:38.425Z,97188.65
2018-03-25T22:35:06.019Z,97194.59
2018-03-25T22:37:33.610Z,97189.34
2018-03-25T22:40:01.245Z,97191.21
2018-03-25T22:42:28.989Z,97184.72
2018-03-25T22:44:56.633Z,97193.89
2018-03-25T22:47:24.240Z,97187.15
2018-03-25T22:49:52.269Z,97194.87
2018-03-25T22:52:19.872Z,97191.16
2018-03-25T22:54:47.460Z,97192.78
2018-03-25T22:57:15.092Z,97196.80
2018-03-25T22:59:42.815Z,97203.53
2018-03-25T23:02:10.501Z,97218.80
2018-03-25T23:04:38.087Z,97207.61
2018-03-25T23:07:05.912Z,97214.92
2018-03-25T23:09:33.507Z,97210.53
2018-03-25T23:12:01.099Z,97213.33
2018-03-25T23:14:28.704Z,97212.20
2018-03-25T23:16:56.338Z,97208.95
2018-03-25T23:19:23.928Z,97204.19
2018-03-25T23:21:51.515Z,97199.86
2018-03-25T23:24:19.543Z,97209.69
2018-03-25T23:26:47.140Z,97206.76
2018-03-25T23:29:14.735Z,97198.81
2018-03-25T23:31:42.356Z,97200.84
2018-03-25T23:34:09.953Z,97198.38
2018-03-25T23:36:37.568Z,97209.13
2018-03-25T23:39:05.168Z,97205.95
2018-03-25T23:41:32.791Z,97202.55
2018-03-25T23:44:00.382Z,97200.35
2018-03-25T23:46:27.995Z,97208.55
2018-03-25T23:48:55.623Z,97212.49
2018-03-25T23:51:23.206Z,97216.25
2018-03-25T23:53:50.824Z,97214.11
2018-03-25T23:56:18.411Z,97223.78
2018-03-25T23:58:46.232Z,97212.55
